Time;durP1;ratioP1;P1;durP2;ratioP2;P2;SDS_P1;SDS_P2;PMS_P1;PMS_P2;Temp;Humidity;BMP_temperature;BMP_pressure;BME280_temperature;BME280_humidity;BME280_pressure;Samples;Min_cycle;Max_cycle;Signal;HPM_P1;HPM_P2
2021/01/18 00:01:31;;;;;;;33.57;16.97;;;;;;;1.12;83.37;101258.16;5069941;28;20228;-63
2021/01/18 00:03:57;;;;;;;35.53;17.90;;;;;;;1.12;82.86;101258.16;5072425;28;20205;-65
2021/01/18 00:06:24;;;;;;;39.57;19.60;;;;;;;1.12;82.57;101252.91;5074450;28;20233;-63
2021/01/18 00:08:51;;;;;;;32.90;16.03;;;;;;;1.13;83.37;101252.88;5074301;28;20205;-63
2021/01/18 00:11:19;;;;;;;27.17;15.03;;;;;;;1.15;83.03;101256.34;5074687;28;20229;-64
2021/01/18 00:13:46;;;;;;;31.47;16.60;;;;;;;1.16;83.11;101251.97;5073861;28;20196;-64
2021/01/18 00:16:12;;;;;;;37.80;18.23;;;;;;;1.17;83.18;101257.19;5074094;28;20204;-62
2021/01/18 00:18:38;;;;;;;30.57;15.87;;;;;;;1.18;83.31;101255.44;5074385;28;20209;-65
2021/01/18 00:21:05;;;;;;;28.57;16.50;;;;;;;1.18;83.72;101253.69;5073561;28;20232;-65
2021/01/18 00:23:32;;;;;;;34.60;16.27;;;;;;;1.19;83.52;101250.19;5074423;28;20196;-65
2021/01/18 00:25:58;;;;;;;36.07;17.27;;;;;;;1.21;83.84;101248.41;5073477;28;20213;-64
2021/01/18 00:28:24;;;;;;;34.03;17.80;;;;;;;1.23;83.88;101251.00;5074379;28;20205;-63
2021/01/18 00:30:50;;;;;;;31.77;17.00;;;;;;;1.24;84.13;101242.25;5070237;28;20217;-63
2021/01/18 00:33:16;;;;;;;29.93;15.97;;;;;;;1.26;83.89;101245.69;5069739;28;20284;-64
2021/01/18 00:35:42;;;;;;;27.60;15.73;;;;;;;1.27;84.08;101239.53;5071684;28;20212;-64
2021/01/18 00:38:08;;;;;;;27.90;14.37;;;;;;;1.28;84.17;101236.91;5071712;28;20205;-65
2021/01/18 00:40:34;;;;;;;27.13;14.70;;;;;;;1.29;83.60;101246.50;5073722;28;20639;-64
2021/01/18 00:43:00;;;;;;;26.43;14.23;;;;;;;1.32;83.95;101249.09;5072600;28;20236;-65
2021/01/18 00:45:26;;;;;;;28.07;14.70;;;;;;;1.34;84.05;101255.19;5073527;28;20208;-65
2021/01/18 00:47:55;;;;;;;27.00;13.83;;;;;;;1.37;84.47;101244.63;5073787;28;20229;-65
2021/01/18 00:50:22;;;;;;;26.87;14.33;;;;;;;1.37;84.29;101239.38;5073929;28;20596;-65
2021/01/18 00:52:50;;;;;;;22.30;12.67;;;;;;;1.39;84.23;101242.00;5067186;28;20316;-64
2021/01/18 00:55:17;;;;;;;21.03;12.20;;;;;;;1.42;84.41;101246.31;5073655;28;20204;-65
2021/01/18 00:57:45;;;;;;;22.20;12.07;;;;;;;1.44;84.14;101255.00;5073805;28;20197;-65
2021/01/18 01:00:13;;;;;;;24.47;12.90;;;;;;;1.45;84.42;101246.25;5073521;28;20213;-65
2021/01/18 01:02:40;;;;;;;16.73;11.00;;;;;;;1.46;84.76;101240.09;5072777;28;20221;-66
2021/01/18 01:05:08;;;;;;;21.90;11.13;;;;;;;1.46;84.73;101246.22;5073937;28;20220;-63
2021/01/18 01:07:38;;;;;;;21.20;12.23;;;;;;;1.48;84.76;101256.69;5073655;28;20569;-66
2021/01/18 01:10:06;;;;;;;19.53;11.93;;;;;;;1.49;84.75;101247.94;5073238;28;20669;-66
2021/01/18 01:12:32;;;;;;;21.03;12.20;;;;;;;1.49;85.32;101246.19;5069097;28;20232;-64
2021/01/18 01:15:00;;;;;;;20.57;12.43;;;;;;;1.51;85.31;101248.78;5072900;28;20209;-65
2021/01/18 01:17:26;;;;;;;21.20;12.60;;;;;;;1.53;85.22;101247.00;5072022;28;20209;-64
2021/01/18 01:19:52;;;;;;;22.60;11.70;;;;;;;1.54;85.02;101243.50;5073185;28;20209;-66
2021/01/18 01:22:18;;;;;;;21.97;12.83;;;;;;;1.57;85.30;101246.06;5073105;28;20220;-66
2021/01/18 01:24:44;;;;;;;22.60;13.23;;;;;;;1.59;85.39;101249.53;5068816;28;20208;-65
2021/01/18 01:27:11;;;;;;;23.13;12.83;;;;;;;1.60;85.14;101257.38;5073145;28;20267;-65
2021/01/18 01:29:36;;;;;;;27.43;13.10;;;;;;;1.63;85.37;101246.81;5073450;28;20397;-65
2021/01/18 01:32:04;;;;;;;24.93;13.00;;;;;;;1.64;85.63;101259.03;5073241;28;20285;-65
2021/01/18 01:34:30;;;;;;;24.57;11.43;;;;;;;1.68;85.48;101254.63;5064456;28;20621;-65
2021/01/18 01:36:56;;;;;;;20.03;11.30;;;;;;;1.70;85.72;101253.69;5073347;28;20216;-65
2021/01/18 01:39:22;;;;;;;22.63;12.13;;;;;;;1.72;85.26;101256.31;5072749;28;20205;-65
2021/01/18 01:41:48;;;;;;;20.07;11.53;;;;;;;1.74;85.58;101254.53;5064415;28;20626;-66
2021/01/18 01:44:14;;;;;;;18.53;11.43;;;;;;;1.77;86.00;101262.34;5066223;28;20209;-66
2021/01/18 01:46:40;;;;;;;21.73;10.97;;;;;;;1.79;85.83;101262.31;5072996;28;20221;-65
2021/01/18 01:49:07;;;;;;;23.57;11.73;;;;;;;1.79;85.18;101257.06;5073064;28;20574;-66
2021/01/18 01:51:33;;;;;;;20.20;11.17;;;;;;;1.82;85.83;101263.09;5071195;28;20224;-64
2021/01/18 01:54:00;;;;;;;17.17;9.80;;;;;;;1.83;85.31;101253.47;5066580;28;20206;-65
2021/01/18 01:56:26;;;;;;;17.30;9.50;;;;;;;1.84;85.50;101266.59;5069832;28;20212;-65
2021/01/18 01:58:53;;;;;;;19.30;10.10;;;;;;;1.86;85.71;101271.81;5072761;28;20209;-65
2021/01/18 02:01:20;;;;;;;16.93;9.30;;;;;;;1.87;85.65;101265.66;5072514;28;20229;-67
2021/01/18 02:03:51;;;;;;;14.07;8.17;;;;;;;1.88;85.57;101270.03;5072272;28;20205;-63
2021/01/18 02:06:18;;;;;;;20.10;10.40;;;;;;;1.90;86.08;101263.00;5070595;28;20597;-66
2021/01/18 02:08:45;;;;;;;20.43;10.97;;;;;;;1.90;85.83;101266.47;5072078;28;20631;-66
2021/01/18 02:11:11;;;;;;;23.70;10.57;;;;;;;1.90;85.50;101263.84;5072503;28;20236;-65
2021/01/18 02:13:51;;;;;;;20.37;10.83;;;;;;;1.94;85.83;101270.78;5072081;28;20205;-66
2021/01/18 02:16:23;;;;;;;26.93;12.07;;;;;;;1.97;86.05;101264.63;5067392;28;20201;-65
2021/01/18 02:18:59;;;;;;;27.93;12.70;;;;;;;1.99;86.35;101270.69;5071416;28;20215;-65
2021/01/18 02:21:50;;;;;;;25.87;12.80;;;;;;;2.01;86.31;101272.41;5072269;28;20220;-66
2021/01/18 02:24:44;;;;;;;26.50;11.93;;;;;;;2.03;86.35;101272.38;5067753;28;20205;-65
2021/01/18 02:27:38;;;;;;;25.63;12.93;;;;;;;2.06;86.61;101267.94;5067592;28;20323;-64
2021/01/18 02:30:15;;;;;;;32.33;14.30;;;;;;;2.09;86.22;101277.53;5066409;28;20211;-66
2021/01/18 02:33:07;;;;;;;32.93;14.77;;;;;;;2.11;86.61;101269.63;5070663;28;20220;-65
2021/01/18 02:35:59;;;;;;;45.67;17.30;;;;;;;2.12;86.08;101263.47;5063395;28;20253;-64
2021/01/18 02:38:32;;;;;;;37.50;17.63;;;;;;;2.13;86.34;101271.31;5071684;28;20745;-65
2021/01/18 02:41:10;;;;;;;37.47;16.07;;;;;;;2.13;86.23;101266.06;5071619;28;20578;-65
2021/01/18 02:43:43;;;;;;;37.67;15.23;;;;;;;2.15;85.95;101271.31;5071334;28;20783;-65
2021/01/18 02:46:12;;;;;;;35.90;16.43;;;;;;;2.16;86.35;101267.75;5063059;28;20208;-65
2021/01/18 02:48:38;;;;;;;33.13;14.90;;;;;;;2.18;86.68;101273.84;5071874;28;20464;-65
2021/01/18 02:51:07;;;;;;;39.13;15.03;;;;;;;2.19;86.24;101275.56;5071651;28;20201;-65
2021/01/18 02:53:33;;;;;;;30.37;15.13;;;;;;;2.19;86.21;101272.94;5071401;28;20559;-66
2021/01/18 02:55:59;;;;;;;30.97;14.10;;;;;;;2.20;86.47;101266.78;5067699;28;20241;-66
2021/01/18 02:58:28;;;;;;;33.23;14.90;;;;;;;2.20;86.56;101272.91;5071456;28;20220;-65
2021/01/18 03:01:08;;;;;;;32.13;14.40;;;;;;;2.19;86.59;101268.56;5071328;28;20205;-65
2021/01/18 03:03:42;;;;;;;27.73;14.80;;;;;;;2.21;86.17;101271.16;5069615;28;20231;-65
2021/01/18 03:06:16;;;;;;;29.03;14.37;;;;;;;2.21;86.97;101260.66;5067046;28;20200;-66
2021/01/18 03:08:46;;;;;;;34.03;14.10;;;;;;;2.21;86.84;101263.28;5068281;28;20225;-64
2021/01/18 03:11:16;;;;;;;29.17;14.13;;;;;;;2.21;86.36;101266.78;5070804;28;20228;-64
2021/01/18 03:13:48;;;;;;;35.30;14.37;;;;;;;2.21;86.55;101271.16;5068182;28;20212;-66
2021/01/18 03:16:19;;;;;;;23.33;12.30;;;;;;;2.21;86.18;101263.28;5066261;28;20217;-65
2021/01/18 03:18:47;;;;;;;25.70;13.30;;;;;;;2.22;87.00;101262.38;5070993;28;20630;-65
2021/01/18 03:21:15;;;;;;;28.97;13.60;;;;;;;2.22;86.77;101263.25;5070757;28;20232;-66
2021/01/18 03:23:42;;;;;;;29.57;13.20;;;;;;;2.22;86.99;101263.25;5069385;28;20201;-65
2021/01/18 03:26:08;;;;;;;31.53;13.67;;;;;;;2.24;86.48;101257.97;5063938;28;20258;-65
2021/01/18 03:28:34;;;;;;;29.73;14.10;;;;;;;2.23;87.01;101258.88;5070686;28;20208;-65
2021/01/18 03:31:00;;;;;;;32.67;14.00;;;;;;;2.25;87.20;101267.59;5070839;28;20205;-65
2021/01/18 03:33:26;;;;;;;24.17;12.03;;;;;;;2.25;87.23;101259.69;5061899;28;20209;-62
2021/01/18 03:35:53;;;;;;;31.73;13.30;;;;;;;2.27;86.71;101261.41;5070885;28;20205;-65
2021/01/18 03:38:20;;;;;;;34.17;13.00;;;;;;;2.29;86.57;101258.75;5065555;28;20205;-65
2021/01/18 03:40:47;;;;;;;25.77;13.43;;;;;;;2.29;87.10;101264.88;5068458;28;20197;-65
2021/01/18 03:43:13;;;;;;;29.57;12.83;;;;;;;2.30;87.19;101260.50;5067552;28;20205;-63
2021/01/18 03:45:40;;;;;;;31.50;12.17;;;;;;;2.31;87.25;101262.22;5070394;28;20232;-65
2021/01/18 03:48:08;;;;;;;30.13;11.97;;;;;;;2.32;86.87;101262.19;5070325;28;20224;-64
2021/01/18 03:50:35;;;;;;;28.60;12.43;;;;;;;2.34;86.69;101262.13;5070522;28;20208;-65
2021/01/18 03:53:01;;;;;;;23.00;11.93;;;;;;;2.35;87.31;101266.50;5063941;28;20246;-65
2021/01/18 03:55:28;;;;;;;27.97;11.40;;;;;;;2.36;86.63;101268.22;5069969;28;20220;-65
2021/01/18 03:57:56;;;;;;;21.87;9.40;;;;;;;2.36;86.74;101265.59;5069836;28;20197;-65
2021/01/18 04:00:23;;;;;;;23.20;9.53;;;;;;;2.38;86.98;101261.19;5069677;28;20673;-65
2021/01/18 04:02:51;;;;;;;22.67;9.00;;;;;;;2.38;86.49;101264.69;5060666;28;20224;-66
2021/01/18 04:05:17;;;;;;;19.23;8.57;;;;;;;2.40;86.92;101265.53;5069687;28;20216;-66
2021/01/18 04:07:44;;;;;;;22.57;9.20;;;;;;;2.40;86.46;101260.25;5070374;28;20321;-65
2021/01/18 04:10:11;;;;;;;19.03;8.93;;;;;;;2.42;86.39;101268.13;5070728;28;20691;-65
2021/01/18 04:12:42;;;;;;;26.87;8.17;;;;;;;2.45;86.43;101265.44;5082536;22;20229;-64
2021/01/18 04:15:10;;;;;;;21.40;7.50;;;;;;;2.47;86.77;101265.41;5049483;28;20670;-64
2021/01/18 04:17:39;;;;;;;17.50;7.37;;;;;;;2.47;86.97;101268.91;5050104;28;20202;-64
2021/01/18 04:20:06;;;;;;;20.63;7.47;;;;;;;2.49;86.73;101261.00;5044502;28;20221;-64
2021/01/18 04:22:32;;;;;;;14.13;6.13;;;;;;;2.49;86.25;101263.63;5049642;28;20231;-64
2021/01/18 04:24:58;;;;;;;20.53;7.30;;;;;;;2.49;87.15;101261.84;5040358;28;20214;-64
2021/01/18 04:27:24;;;;;;;21.13;7.00;;;;;;;2.50;87.20;101263.59;5045448;28;20230;-64
2021/01/18 04:29:51;;;;;;;25.30;7.67;;;;;;;2.51;87.31;101262.66;5043603;28;20211;-63
2021/01/18 04:32:17;;;;;;;17.17;7.90;;;;;;;2.51;86.26;101261.81;5044656;28;20230;-64
2021/01/18 04:34:43;;;;;;;19.30;8.07;;;;;;;2.49;86.52;101256.59;5046262;28;20678;-63
2021/01/18 04:37:09;;;;;;;20.97;7.70;;;;;;;2.50;87.12;101266.22;5044876;28;20206;-63
2021/01/18 04:39:35;;;;;;;21.13;9.60;;;;;;;2.49;87.12;101259.22;5045120;28;20206;-63
2021/01/18 04:42:01;;;;;;;18.37;8.40;;;;;;;2.48;87.16;101265.38;5043607;28;20237;-64
2021/01/18 04:44:28;;;;;;;20.83;8.87;;;;;;;2.48;86.62;101269.75;5046644;28;20207;-61
2021/01/18 04:46:56;;;;;;;23.43;9.83;;;;;;;2.45;86.51;101270.69;5042257;28;20237;-63
2021/01/18 04:49:23;;;;;;;30.43;10.10;;;;;;;2.43;86.90;101261.97;5032274;28;20202;-63
2021/01/18 04:51:51;;;;;;;26.53;10.63;;;;;;;2.40;86.97;101265.53;5034239;28;20237;-63
2021/01/18 04:54:18;;;;;;;20.97;10.53;;;;;;;2.39;86.91;101273.44;5041993;28;20576;-64
2021/01/18 04:57:07;;;;;;;34.60;10.93;;;;;;;2.37;86.43;101272.59;5055936;28;20690;-63
2021/01/18 04:59:40;;;;;;;27.00;9.67;;;;;;;2.34;85.89;101273.50;5052614;28;20210;-64
2021/01/18 05:02:12;;;;;;;26.03;9.67;;;;;;;2.31;86.68;101270.97;5054298;28;20287;-63
2021/01/18 05:04:40;;;;;;;25.13;9.30;;;;;;;2.29;86.18;101270.13;5050122;28;20198;-63
2021/01/18 05:07:44;;;;;;;25.70;8.80;;;;;;;2.26;86.02;101269.31;5054980;28;20229;-63
2021/01/18 05:10:13;;;;;;;27.00;9.17;;;;;;;2.24;86.44;101269.34;5058195;28;20750;-64
2021/01/18 05:12:41;;;;;;;19.20;8.50;;;;;;;2.22;85.98;101273.75;5047510;28;20318;-63
2021/01/18 05:15:09;;;;;;;21.33;8.37;;;;;;;2.18;86.31;101266.81;5056779;28;20200;-62
2021/01/18 05:17:46;;;;;;;19.97;8.60;;;;;;;2.18;86.29;101273.84;5048115;28;20204;-64
2021/01/18 05:20:14;;;;;;;18.20;8.13;;;;;;;2.15;86.17;101264.25;5052696;28;20213;-64
2021/01/18 05:22:43;;;;;;;21.80;9.03;;;;;;;2.15;86.61;101271.31;5050638;28;20254;-63
2021/01/18 05:25:10;;;;;;;20.70;8.77;;;;;;;2.12;86.47;101266.97;5048923;28;20284;-62
2021/01/18 05:28:01;;;;;;;26.47;8.77;;;;;;;2.12;85.73;101277.47;5048868;28;20236;-63
2021/01/18 05:30:28;;;;;;;20.03;8.37;;;;;;;2.11;85.88;101274.88;5049300;28;20225;-63
2021/01/18 05:33:09;;;;;;;17.13;7.80;;;;;;;2.08;86.48;101263.53;5050936;28;20221;-63
2021/01/18 05:35:38;;;;;;;20.17;8.37;;;;;;;2.07;86.37;101274.91;5052521;28;20206;-63
2021/01/18 05:38:09;;;;;;;18.73;8.40;;;;;;;2.06;85.93;101273.19;5045333;28;20210;-63
2021/01/18 05:40:37;;;;;;;21.37;7.73;;;;;;;2.04;86.00;101269.72;5050726;28;20272;-62
2021/01/18 05:43:04;;;;;;;22.43;8.93;;;;;;;2.04;86.42;101279.34;5048499;28;20234;-62
2021/01/18 05:45:32;;;;;;;22.70;8.27;;;;;;;2.04;85.93;101282.00;5043854;28;20198;-63
2021/01/18 05:47:59;;;;;;;17.17;8.13;;;;;;;2.02;86.33;101281.16;5042383;28;20698;-63
2021/01/18 05:50:27;;;;;;;19.33;7.90;;;;;;;2.02;86.39;101278.53;5040978;28;20209;-63
2021/01/18 05:52:54;;;;;;;19.20;8.13;;;;;;;2.02;85.90;101286.41;5055962;28;20854;-63
2021/01/18 05:55:21;;;;;;;20.77;8.53;;;;;;;2.00;86.09;101291.69;5051382;28;20213;-62
2021/01/18 05:57:49;;;;;;;16.87;7.67;;;;;;;2.00;85.88;101288.19;5054981;28;20206;-63
2021/01/18 06:00:26;;;;;;;20.43;8.10;;;;;;;1.99;85.79;101284.69;5056456;28;20217;-62
2021/01/18 06:02:53;;;;;;;20.07;7.80;;;;;;;1.98;85.83;101290.84;5042636;28;20232;-62
2021/01/18 06:05:30;;;;;;;20.73;7.30;;;;;;;1.98;86.48;101292.59;5041772;28;20580;-62
2021/01/18 06:08:08;;;;;;;22.23;7.83;;;;;;;1.98;85.89;101301.34;5045768;28;20232;-63
2021/01/18 06:10:35;;;;;;;20.77;7.20;;;;;;;2.00;86.19;101298.69;5050967;28;20204;-63
2021/01/18 06:13:01;;;;;;;19.30;7.47;;;;;;;1.99;86.54;101295.19;5046608;28;20803;-63
2021/01/18 06:15:28;;;;;;;23.27;7.30;;;;;;;2.02;86.68;101296.91;5052126;28;20214;-63
2021/01/18 06:17:56;;;;;;;15.70;6.83;;;;;;;2.03;86.12;101288.13;5047938;28;20209;-62
2021/01/18 06:20:24;;;;;;;14.00;7.03;;;;;;;2.03;86.24;101294.25;5040228;28;20666;-62
2021/01/18 06:22:51;;;;;;;24.70;8.40;;;;;;;2.04;86.56;101303.88;5031540;28;20237;-63
2021/01/18 06:25:18;;;;;;;19.07;7.80;;;;;;;2.04;86.28;101298.63;5047575;28;20731;-65
2021/01/18 06:27:44;;;;;;;13.80;6.83;;;;;;;2.04;86.53;101303.88;5050897;28;20221;-65
2021/01/18 06:30:31;;;;;;;19.40;8.07;;;;;;;2.06;86.89;101319.63;5046935;28;20206;-65
2021/01/18 06:32:59;;;;;;;19.97;7.57;;;;;;;2.03;86.38;101310.03;5043951;28;20698;-66
2021/01/18 06:35:28;;;;;;;20.77;8.40;;;;;;;2.05;86.24;101312.63;5057011;28;20213;-65
2021/01/18 06:37:57;;;;;;;19.77;7.57;;;;;;;2.05;86.96;101312.63;5051827;28;20202;-66
2021/01/18 06:40:28;;;;;;;20.47;7.07;;;;;;;2.05;86.09;101308.22;5046135;28;20590;-66
2021/01/18 06:42:54;;;;;;;20.10;7.67;;;;;;;2.06;86.80;101320.47;5044667;28;20283;-65
2021/01/18 06:45:21;;;;;;;19.37;7.87;;;;;;;2.07;86.49;101316.97;5051657;28;20202;-65
2021/01/18 06:47:47;;;;;;;14.23;7.03;;;;;;;2.09;86.88;101317.81;5051527;28;20320;-65
2021/01/18 06:50:14;;;;;;;18.23;7.37;;;;;;;2.11;86.38;101311.66;5045547;28;20690;-65
2021/01/18 06:52:46;;;;;;;15.07;6.73;;;;;;;2.11;86.78;101316.91;5049411;28;20773;-66
2021/01/18 06:55:24;;;;;;;19.47;6.77;;;;;;;2.10;86.72;101316.03;5047528;28;20213;-64
2021/01/18 06:58:02;;;;;;;11.07;6.60;;;;;;;2.11;86.54;101322.16;5046819;28;20708;-66
2021/01/18 07:00:29;;;;;;;18.87;6.87;;;;;;;2.09;86.24;101315.19;5048901;28;20686;-65
2021/01/18 07:02:56;;;;;;;15.33;7.23;;;;;;;2.11;86.33;101316.91;5049815;28;20232;-66
2021/01/18 07:05:45;;;;;;;12.93;6.87;;;;;;;2.11;86.43;101320.41;5050880;28;20236;-65
2021/01/18 07:08:14;;;;;;;13.87;6.20;;;;;;;2.13;86.85;101320.38;5045384;28;20217;-66
2021/01/18 07:10:44;;;;;;;12.57;6.57;;;;;;;2.14;86.88;101322.97;5047187;28;20202;-66
2021/01/18 07:13:10;;;;;;;15.87;6.87;;;;;;;2.16;86.83;101325.56;5045629;28;20225;-65
2021/01/18 07:15:40;;;;;;;15.07;6.63;;;;;;;2.16;86.88;101326.41;5049510;28;20220;-66
2021/01/18 07:18:08;;;;;;;17.17;7.13;;;;;;;2.19;86.77;101325.50;5049839;28;20212;-65
2021/01/18 07:20:43;;;;;;;16.33;6.77;;;;;;;2.19;86.71;101330.75;5050063;28;20209;-66
2021/01/18 07:23:29;;;;;;;15.30;6.77;;;;;;;2.19;86.96;101323.75;5047599;28;20232;-66
2021/01/18 07:26:32;;;;;;;12.63;6.23;;;;;;;2.21;87.03;101319.34;5045272;28;20304;-65
2021/01/18 07:29:03;;;;;;;10.73;6.50;;;;;;;2.20;86.07;101321.97;5046961;28;20303;-66
2021/01/18 07:31:31;;;;;;;14.87;6.50;;;;;;;2.20;86.87;101328.09;5047560;28;20250;-64
2021/01/18 07:33:57;;;;;;;13.10;6.33;;;;;;;2.20;86.27;101325.47;5049322;28;20279;-65
2021/01/18 07:36:25;;;;;;;9.73;5.20;;;;;;;2.19;86.72;101329.00;5049126;28;20215;-64
2021/01/18 07:38:51;;;;;;;10.30;5.50;;;;;;;2.20;86.14;101329.88;5042458;28;20214;-65
2021/01/18 07:41:20;;;;;;;13.70;6.40;;;;;;;2.21;86.33;101327.22;5031552;28;20202;-66
2021/01/18 07:43:48;;;;;;;9.83;4.87;;;;;;;2.24;86.82;101323.66;5033365;28;20225;-66
2021/01/18 07:46:37;;;;;;;9.87;4.97;;;;;;;2.24;86.92;101331.56;5032382;28;20558;-65
2021/01/18 07:49:39;;;;;;;8.20;5.20;;;;;;;2.26;86.99;101342.91;5031887;28;20213;-66
2021/01/18 07:52:16;;;;;;;9.83;4.97;;;;;;;2.29;86.85;101337.59;5031655;28;20240;-66
2021/01/18 07:54:43;;;;;;;9.67;5.67;;;;;;;2.31;86.95;101327.94;5033288;28;20264;-65
2021/01/18 07:57:29;;;;;;;10.23;5.13;;;;;;;2.32;86.85;101334.91;5031610;28;20201;-66
2021/01/18 08:00:29;;;;;;;12.53;5.73;;;;;;;2.36;86.23;101340.06;5018935;28;20678;-63
2021/01/18 08:03:11;;;;;;;11.60;5.83;;;;;;;2.38;86.84;101345.31;5031113;28;20230;-65
2021/01/18 08:05:39;;;;;;;9.50;6.03;;;;;;;2.39;86.61;101329.50;5030661;28;20202;-66
2021/01/18 08:08:06;;;;;;;9.47;5.60;;;;;;;2.41;86.20;101337.34;5031396;28;20225;-66
2021/01/18 08:10:52;;;;;;;8.57;5.27;;;;;;;2.42;86.72;101325.94;5032269;28;20627;-66
2021/01/18 08:13:30;;;;;;;11.10;6.40;;;;;;;2.43;86.00;101320.66;5033105;28;20236;-65
2021/01/18 08:15:57;;;;;;;11.20;5.80;;;;;;;2.46;86.02;101319.75;5033448;28;20210;-66
2021/01/18 08:18:28;;;;;;;10.90;5.93;;;;;;;2.47;86.72;101323.25;5035149;28;20209;-66
2021/01/18 08:20:54;;;;;;;11.33;5.80;;;;;;;2.48;86.34;101322.34;5033555;28;20220;-66
2021/01/18 08:23:42;;;;;;;10.03;5.53;;;;;;;2.51;86.17;101322.28;5031024;28;20226;-65
2021/01/18 08:26:09;;;;;;;10.30;5.87;;;;;;;2.53;86.59;101316.09;5034817;28;20228;-63
2021/01/18 08:28:36;;;;;;;11.73;6.00;;;;;;;2.57;86.21;101317.75;5038069;28;20222;-65
2021/01/18 08:31:02;;;;;;;16.63;9.23;;;;;;;2.58;86.54;101311.59;5036402;28;20217;-66
2021/01/18 08:33:29;;;;;;;11.57;6.50;;;;;;;2.60;86.00;101309.81;5037884;28;20225;-66
2021/01/18 08:35:57;;;;;;;12.60;6.87;;;;;;;2.62;86.72;101313.28;5042493;28;20233;-67
2021/01/18 08:38:25;;;;;;;10.93;6.30;;;;;;;2.65;86.82;101304.47;5034896;28;20289;-65
2021/01/18 08:40:53;;;;;;;12.53;5.97;;;;;;;2.66;86.36;101307.06;5038891;28;20260;-65
2021/01/18 08:43:21;;;;;;;11.40;6.40;;;;;;;2.68;86.16;101321.06;5037214;28;20833;-66
2021/01/18 08:45:49;;;;;;;9.90;6.30;;;;;;;2.70;86.46;101316.59;5035787;28;20198;-66
2021/01/18 08:48:20;;;;;;;12.33;6.57;;;;;;;2.72;85.94;101314.81;5034895;28;20226;-65
2021/01/18 08:50:52;;;;;;;15.77;6.90;;;;;;;2.75;86.22;101313.88;5035553;28;20213;-66
2021/01/18 08:53:32;;;;;;;11.17;5.97;;;;;;;2.77;85.97;101318.22;5038060;28;20783;-66
2021/01/18 08:56:03;;;;;;;11.83;6.70;;;;;;;2.80;86.41;101317.31;5034495;28;20568;-66
2021/01/18 08:58:43;;;;;;;12.70;7.13;;;;;;;2.82;85.56;101312.88;5035853;28;20200;-64
2021/01/18 09:01:12;;;;;;;13.70;7.60;;;;;;;2.85;85.82;101306.69;5034593;28;20605;-65
2021/01/18 09:03:38;;;;;;;17.07;9.10;;;;;;;2.87;85.66;101316.25;5035864;28;20229;-64
2021/01/18 09:06:05;;;;;;;13.37;7.13;;;;;;;2.89;85.69;101309.19;5036139;28;20243;-67
2021/01/18 09:08:31;;;;;;;12.47;7.87;;;;;;;2.93;86.27;101312.63;5038070;28;20222;-65
2021/01/18 09:10:58;;;;;;;15.27;8.23;;;;;;;2.94;85.81;101304.72;5035048;28;20206;-65
2021/01/18 09:13:26;;;;;;;15.97;8.57;;;;;;;2.96;85.43;101310.81;5034595;28;20240;-67
2021/01/18 09:15:53;;;;;;;16.83;8.13;;;;;;;2.97;85.91;101312.56;5035136;28;20209;-65
2021/01/18 09:18:22;;;;;;;16.33;8.10;;;;;;;2.99;85.59;101310.75;5034408;28;20655;-64
2021/01/18 09:20:49;;;;;;;18.87;9.10;;;;;;;3.01;85.72;101316.84;5034147;28;20238;-65
2021/01/18 09:23:16;;;;;;;14.27;8.70;;;;;;;3.03;85.15;101306.28;5034196;28;20284;-65
2021/01/18 09:25:42;;;;;;;15.43;8.50;;;;;;;3.06;85.89;101312.34;5035334;28;20203;-63
2021/01/18 09:28:11;;;;;;;11.60;8.83;;;;;;;3.09;85.58;101304.38;5034406;28;20234;-64
2021/01/18 09:30:38;;;;;;;18.27;11.50;;;;;;;3.14;85.83;101304.28;5041473;28;20654;-64
2021/01/18 09:33:06;;;;;;;18.80;10.87;;;;;;;3.18;84.99;101300.69;5040719;28;20637;-64
2021/01/18 09:35:35;;;;;;;16.80;9.00;;;;;;;3.20;85.64;101296.25;5039734;28;20202;-65
2021/01/18 09:38:02;;;;;;;16.77;8.90;;;;;;;3.24;85.28;101295.25;5040218;28;20880;-65
2021/01/18 09:40:28;;;;;;;19.77;8.90;;;;;;;3.28;85.26;101291.66;5038798;28;20195;-65
2021/01/18 09:42:56;;;;;;;18.67;8.77;;;;;;;3.30;85.67;101287.22;5051136;28;20221;-65
2021/01/18 09:45:23;;;;;;;28.70;15.07;;;;;;;3.33;84.82;101287.16;5047127;28;20675;-65
2021/01/18 09:47:50;;;;;;;22.13;12.13;;;;;;;3.37;84.77;101299.38;5058043;28;20245;-65
2021/01/18 09:50:18;;;;;;;16.13;11.30;;;;;;;3.39;84.98;101301.97;5047177;28;20210;-65
2021/01/18 09:52:46;;;;;;;21.40;11.13;;;;;;;3.43;85.31;101298.34;5057512;28;20228;-65
2021/01/18 09:55:17;;;;;;;18.47;10.40;;;;;;;3.45;85.00;101294.75;5048228;28;20205;-65
2021/01/18 09:57:45;;;;;;;23.80;12.27;;;;;;;3.45;84.57;101293.91;5054041;28;20214;-65
2021/01/18 10:00:12;;;;;;;18.33;9.77;;;;;;;3.47;84.41;101287.69;5037163;28;20206;-63
2021/01/18 10:02:42;;;;;;;19.53;10.63;;;;;;;3.49;84.92;101283.25;5056174;28;20240;-66
2021/01/18 10:05:11;;;;;;;23.80;11.73;;;;;;;3.52;84.50;101281.47;5042803;28;20206;-65
2021/01/18 10:07:44;;;;;;;18.80;11.30;;;;;;;3.55;84.10;101284.03;5037103;28;20580;-62
2021/01/18 10:10:12;;;;;;;24.53;11.27;;;;;;;3.57;84.93;101280.47;5035532;28;20672;-65
2021/01/18 10:12:42;;;;;;;21.50;11.10;;;;;;;3.60;84.79;101279.50;5070605;22;20571;-66
2021/01/18 10:15:08;;;;;;;15.33;10.03;;;;;;;3.61;84.60;101274.19;5055950;28;20593;-67
2021/01/18 10:17:34;;;;;;;21.57;11.07;;;;;;;3.62;84.97;101280.31;5059340;28;20216;-67
2021/01/18 10:20:06;;;;;;;22.00;9.73;;;;;;;3.67;84.72;101278.44;5055493;28;20777;-66
2021/01/18 10:22:36;;;;;;;24.00;11.57;;;;;;;3.69;84.59;101269.59;5057359;28;20694;-66
2021/01/18 10:25:08;;;;;;;22.47;12.60;;;;;;;3.71;84.57;101275.72;5055598;28;20259;-67
2021/01/18 10:27:36;;;;;;;20.17;11.03;;;;;;;3.75;83.94;101276.50;5059543;28;20221;-67
2021/01/18 10:30:10;;;;;;;27.13;12.27;;;;;;;3.77;83.65;101272.91;5057163;28;20202;-67
2021/01/18 10:32:41;;;;;;;24.87;12.33;;;;;;;3.78;84.25;101271.13;5056890;28;20259;-67
2021/01/18 10:35:22;;;;;;;23.23;12.07;;;;;;;3.80;84.22;101262.28;5057445;28;20209;-67
2021/01/18 10:37:48;;;;;;;29.13;11.87;;;;;;;3.82;83.76;101265.75;5066000;28;20300;-67
2021/01/18 10:40:19;;;;;;;19.07;11.03;;;;;;;3.85;84.19;101264.81;5063678;28;20578;-66
2021/01/18 10:42:51;;;;;;;20.57;11.40;;;;;;;3.88;83.85;101259.47;5058270;28;20221;-66
2021/01/18 10:45:19;;;;;;;23.37;12.73;;;;;;;3.89;83.98;101252.44;5054640;28;20206;-66
2021/01/18 10:47:56;;;;;;;22.13;12.50;;;;;;;3.90;83.50;101260.28;5057078;28;20226;-67
2021/01/18 10:50:26;;;;;;;25.63;13.10;;;;;;;3.92;83.59;101253.22;5054848;28;20206;-67
2021/01/18 10:53:01;;;;;;;24.97;14.47;;;;;;;3.95;83.40;101247.84;5054693;28;20221;-67
2021/01/18 10:55:27;;;;;;;27.10;14.00;;;;;;;3.97;83.92;101253.94;5057776;28;20211;-67
2021/01/18 10:57:54;;;;;;;29.20;14.27;;;;;;;3.98;83.25;101246.91;5056013;28;20209;-67
2021/01/18 11:00:21;;;;;;;28.13;14.57;;;;;;;4.01;83.63;101245.06;5058210;28;20202;-66
2021/01/18 11:02:54;;;;;;;33.33;16.83;;;;;;;4.02;83.51;101238.88;5054630;28;20311;-67
2021/01/18 11:05:28;;;;;;;32.77;15.83;;;;;;;4.04;83.55;101230.94;5056315;28;20201;-67
2021/01/18 11:07:54;;;;;;;28.10;15.70;;;;;;;4.05;83.19;101230.88;5054776;28;20221;-68
2021/01/18 11:10:23;;;;;;;34.80;17.90;;;;;;;4.07;82.86;101230.84;5056906;28;20201;-67
2021/01/18 11:13:13;;;;;;;36.07;17.23;;;;;;;4.06;83.44;101223.84;5056740;28;20600;-67
2021/01/18 11:15:42;;;;;;;38.30;18.47;;;;;;;4.08;83.10;101230.81;5058122;28;20198;-67
2021/01/18 11:18:10;;;;;;;35.50;18.77;;;;;;;4.10;83.56;101228.13;5056001;28;20201;-67
2021/01/18 11:20:37;;;;;;;44.90;23.07;;;;;;;4.10;83.12;101223.72;5056780;28;20205;-67
2021/01/18 11:23:09;;;;;;;35.87;22.50;;;;;;;4.12;83.24;101218.41;5055101;28;20236;-67
2021/01/18 11:25:35;;;;;;;40.60;22.13;;;;;;;4.13;83.10;101213.06;5055983;28;20292;-67
2021/01/18 11:28:09;;;;;;;41.40;21.97;;;;;;;4.14;83.37;101212.16;5054437;28;20891;-67
2021/01/18 11:30:35;;;;;;;46.40;21.67;;;;;;;4.15;83.50;101208.63;5055905;28;20201;-67
2021/01/18 11:33:02;;;;;;;45.13;23.23;;;;;;;4.17;83.21;101203.31;5060415;28;20615;-68
2021/01/18 11:35:28;;;;;;;44.20;22.10;;;;;;;4.18;82.90;101202.41;5056091;28;20217;-67